sensor_id;sensor_type;location;lat;lon;timestamp;P1;durP1;ratioP1;P2;durP2;ratioP2
17197;SDS011;8715;51.010;6.812;2022-09-12T00:00:29;398.92;;;381.85;;
17197;SDS011;8715;51.010;6.812;2022-09-12T00:02:57;383.80;;;367.30;;
17197;SDS011;8715;51.010;6.812;2022-09-12T00:05:25;372.08;;;355.77;;
17197;SDS011;8715;51.010;6.812;2022-09-12T00:07:52;383.15;;;366.67;;
17197;SDS011;8715;51.010;6.812;2022-09-12T00:10:17;387.85;;;370.52;;
17197;SDS011;8715;51.010;6.812;2022-09-12T00:12:43;390.65;;;370.95;;
17197;SDS011;8715;51.010;6.812;2022-09-12T00:15:09;385.23;;;366.10;;
17197;SDS011;8715;51.010;6.812;2022-09-12T00:17:35;377.73;;;360.58;;
17197;SDS011;8715;51.010;6.812;2022-09-12T00:20:02;388.98;;;370.90;;
17197;SDS011;8715;51.010;6.812;2022-09-12T00:22:29;377.85;;;360.27;;
17197;SDS011;8715;51.010;6.812;2022-09-12T00:24:55;379.87;;;362.20;;
17197;SDS011;8715;51.010;6.812;2022-09-12T00:27:20;390.05;;;369.92;;
17197;SDS011;8715;51.010;6.812;2022-09-12T00:29:45;386.23;;;367.35;;
17197;SDS011;8715;51.010;6.812;2022-09-12T00:32:11;394.95;;;373.30;;
17197;SDS011;8715;51.010;6.812;2022-09-12T00:34:36;409.40;;;389.73;;
17197;SDS011;8715;51.010;6.812;2022-09-12T00:37:02;388.63;;;368.77;;
17197;SDS011;8715;51.010;6.812;2022-09-12T00:39:27;381.92;;;364.52;;
17197;SDS011;8715;51.010;6.812;2022-09-12T00:41:53;382.83;;;363.50;;
17197;SDS011;8715;51.010;6.812;2022-09-12T00:46:50;387.45;;;368.55;;
17197;SDS011;8715;51.010;6.812;2022-09-12T00:49:31;381.42;;;362.92;;
17197;SDS011;8715;51.010;6.812;2022-09-12T00:52:07;371.30;;;353.42;;
17197;SDS011;8715;51.010;6.812;2022-09-12T00:54:37;377.85;;;361.05;;
17197;SDS011;8715;51.010;6.812;2022-09-12T00:57:06;367.98;;;350.70;;
17197;SDS011;8715;51.010;6.812;2022-09-12T00:59:36;370.85;;;353.50;;
17197;SDS011;8715;51.010;6.812;2022-09-12T01:02:05;379.10;;;360.13;;
17197;SDS011;8715;51.010;6.812;2022-09-12T01:04:31;375.27;;;357.15;;
17197;SDS011;8715;51.010;6.812;2022-09-12T01:06:56;390.05;;;370.00;;
17197;SDS011;8715;51.010;6.812;2022-09-12T01:09:23;368.27;;;350.52;;
17197;SDS011;8715;51.010;6.812;2022-09-12T01:11:49;379.05;;;360.42;;
17197;SDS011;8715;51.010;6.812;2022-09-12T01:14:17;374.58;;;355.98;;
17197;SDS011;8715;51.010;6.812;2022-09-12T01:16:43;369.10;;;350.98;;
17197;SDS011;8715;51.010;6.812;2022-09-12T01:19:17;379.73;;;360.83;;
17197;SDS011;8715;51.010;6.812;2022-09-12T01:38:35;382.95;;;364.15;;
17197;SDS011;8715;51.010;6.812;2022-09-12T01:41:07;382.30;;;360.52;;
17197;SDS011;8715;51.010;6.812;2022-09-12T01:43:53;372.58;;;354.30;;
17197;SDS011;8715;51.010;6.812;2022-09-12T01:46:47;375.98;;;356.90;;
17197;SDS011;8715;51.010;6.812;2022-09-12T01:49:20;375.58;;;356.13;;
17197;SDS011;8715;51.010;6.812;2022-09-12T01:51:54;370.02;;;350.35;;
17197;SDS011;8715;51.010;6.812;2022-09-12T01:54:25;370.20;;;352.15;;
17197;SDS011;8715;51.010;6.812;2022-09-12T01:56:55;385.52;;;366.65;;
17197;SDS011;8715;51.010;6.812;2022-09-12T01:59:28;376.38;;;357.02;;
17197;SDS011;8715;51.010;6.812;2022-09-12T02:04:34;375.48;;;356.90;;
17197;SDS011;8715;51.010;6.812;2022-09-12T02:07:07;382.48;;;363.45;;
17197;SDS011;8715;51.010;6.812;2022-09-12T02:09:39;376.30;;;356.92;;
17197;SDS011;8715;51.010;6.812;2022-09-12T02:12:06;366.70;;;348.17;;
17197;SDS011;8715;51.010;6.812;2022-09-12T02:14:41;391.45;;;371.27;;
17197;SDS011;8715;51.010;6.812;2022-09-12T02:17:11;380.67;;;360.40;;
17197;SDS011;8715;51.010;6.812;2022-09-12T02:19:39;439.35;;;417.90;;
17197;SDS011;8715;51.010;6.812;2022-09-12T02:22:35;378.75;;;356.95;;
17197;SDS011;8715;51.010;6.812;2022-09-12T02:25:02;385.42;;;365.05;;
17197;SDS011;8715;51.010;6.812;2022-09-12T02:27:31;371.90;;;351.25;;
17197;SDS011;8715;51.010;6.812;2022-09-12T02:30:01;390.45;;;369.35;;
17197;SDS011;8715;51.010;6.812;2022-09-12T02:35:34;393.30;;;373.10;;
17197;SDS011;8715;51.010;6.812;2022-09-12T02:38:10;396.95;;;376.92;;
17197;SDS011;8715;51.010;6.812;2022-09-12T02:40:39;383.40;;;362.42;;
17197;SDS011;8715;51.010;6.812;2022-09-12T02:43:05;372.98;;;353.58;;
17197;SDS011;8715;51.010;6.812;2022-09-12T02:45:31;381.25;;;360.17;;
17197;SDS011;8715;51.010;6.812;2022-09-12T02:47:59;373.30;;;351.75;;
17197;SDS011;8715;51.010;6.812;2022-09-12T02:50:29;402.70;;;380.25;;
17197;SDS011;8715;51.010;6.812;2022-09-12T02:52:54;377.60;;;357.13;;
17197;SDS011;8715;51.010;6.812;2022-09-12T02:55:24;375.80;;;356.30;;
17197;SDS011;8715;51.010;6.812;2022-09-12T02:57:50;377.48;;;357.67;;
17197;SDS011;8715;51.010;6.812;2022-09-12T03:00:15;387.27;;;366.80;;
17197;SDS011;8715;51.010;6.812;2022-09-12T03:10:39;381.85;;;359.05;;
17197;SDS011;8715;51.010;6.812;2022-09-12T03:16:11;385.33;;;363.52;;
17197;SDS011;8715;51.010;6.812;2022-09-12T03:21:38;385.92;;;364.98;;
17197;SDS011;8715;51.010;6.812;2022-09-12T03:26:44;361.75;;;342.70;;
17197;SDS011;8715;51.010;6.812;2022-09-12T03:29:13;380.88;;;360.65;;
17197;SDS011;8715;51.010;6.812;2022-09-12T03:31:49;383.13;;;361.92;;
17197;SDS011;8715;51.010;6.812;2022-09-12T03:34:16;376.17;;;354.92;;
17197;SDS011;8715;51.010;6.812;2022-09-12T03:36:41;376.00;;;354.95;;
17197;SDS011;8715;51.010;6.812;2022-09-12T03:39:07;384.40;;;361.27;;
17197;SDS011;8715;51.010;6.812;2022-09-12T03:41:32;379.47;;;358.50;;
17197;SDS011;8715;51.010;6.812;2022-09-12T03:43:57;372.13;;;352.02;;
17197;SDS011;8715;51.010;6.812;2022-09-12T03:46:23;373.25;;;353.35;;
17197;SDS011;8715;51.010;6.812;2022-09-12T03:48:48;389.93;;;368.10;;
17197;SDS011;8715;51.010;6.812;2022-09-12T03:51:14;378.40;;;358.25;;
17197;SDS011;8715;51.010;6.812;2022-09-12T03:53:40;376.35;;;356.90;;
17197;SDS011;8715;51.010;6.812;2022-09-12T03:56:06;377.23;;;357.52;;
17197;SDS011;8715;51.010;6.812;2022-09-12T03:58:33;374.73;;;354.65;;
17197;SDS011;8715;51.010;6.812;2022-09-12T04:00:59;378.83;;;357.13;;
17197;SDS011;8715;51.010;6.812;2022-09-12T04:03:25;365.15;;;345.30;;
17197;SDS011;8715;51.010;6.812;2022-09-12T04:05:50;372.97;;;353.23;;
17197;SDS011;8715;51.010;6.812;2022-09-12T04:08:15;370.23;;;350.43;;
17197;SDS011;8715;51.010;6.812;2022-09-12T04:10:41;377.73;;;356.48;;
17197;SDS011;8715;51.010;6.812;2022-09-12T04:13:06;368.30;;;348.92;;
17197;SDS011;8715;51.010;6.812;2022-09-12T04:15:32;367.08;;;348.88;;
17197;SDS011;8715;51.010;6.812;2022-09-12T04:17:57;378.77;;;358.87;;
17197;SDS011;8715;51.010;6.812;2022-09-12T04:20:22;366.90;;;346.67;;
17197;SDS011;8715;51.010;6.812;2022-09-12T04:22:48;358.35;;;340.48;;
17197;SDS011;8715;51.010;6.812;2022-09-12T04:25:13;380.42;;;361.67;;
17197;SDS011;8715;51.010;6.812;2022-09-12T04:27:39;374.33;;;355.95;;
17197;SDS011;8715;51.010;6.812;2022-09-12T04:30:05;371.52;;;352.52;;
17197;SDS011;8715;51.010;6.812;2022-09-12T04:32:33;387.95;;;366.55;;
17197;SDS011;8715;51.010;6.812;2022-09-12T04:34:59;368.57;;;349.97;;
17197;SDS011;8715;51.010;6.812;2022-09-12T04:37:24;373.75;;;353.52;;
17197;SDS011;8715;51.010;6.812;2022-09-12T04:39:49;375.98;;;355.63;;
17197;SDS011;8715;51.010;6.812;2022-09-12T04:42:15;364.98;;;344.45;;
17197;SDS011;8715;51.010;6.812;2022-09-12T04:44:41;367.88;;;348.27;;
17197;SDS011;8715;51.010;6.812;2022-09-12T04:47:06;369.13;;;348.63;;
17197;SDS011;8715;51.010;6.812;2022-09-12T04:49:32;372.42;;;350.88;;
17197;SDS011;8715;51.010;6.812;2022-09-12T04:51:57;373.80;;;352.33;;
17197;SDS011;8715;51.010;6.812;2022-09-12T04:54:23;375.50;;;354.30;;
17197;SDS011;8715;51.010;6.812;2022-09-12T04:56:49;380.00;;;360.58;;
17197;SDS011;8715;51.010;6.812;2022-09-12T04:59:15;374.23;;;353.80;;
17197;SDS011;8715;51.010;6.812;2022-09-12T05:01:41;368.50;;;348.60;;
17197;SDS011;8715;51.010;6.812;2022-09-12T05:04:08;370.55;;;349.08;;
17197;SDS011;8715;51.010;6.812;2022-09-12T05:06:34;366.48;;;347.55;;
17197;SDS011;8715;51.010;6.812;2022-09-12T05:09:01;372.63;;;353.95;;
17197;SDS011;8715;51.010;6.812;2022-09-12T05:11:29;373.83;;;353.30;;
17197;SDS011;8715;51.010;6.812;2022-09-12T05:13:55;369.80;;;350.52;;
17197;SDS011;8715;51.010;6.812;2022-09-12T05:16:22;372.38;;;351.58;;
17197;SDS011;8715;51.010;6.812;2022-09-12T05:18:48;372.15;;;352.35;;
17197;SDS011;8715;51.010;6.812;2022-09-12T05:21:14;398.23;;;377.00;;
17197;SDS011;8715;51.010;6.812;2022-09-12T05:23:51;399.88;;;377.90;;
17197;SDS011;8715;51.010;6.812;2022-09-12T05:26:17;399.77;;;379.02;;
17197;SDS011;8715;51.010;6.812;2022-09-12T05:28:44;428.00;;;406.70;;
17197;SDS011;8715;51.010;6.812;2022-09-12T05:31:11;447.15;;;425.83;;
17197;SDS011;8715;51.010;6.812;2022-09-12T05:33:44;468.95;;;447.27;;
17197;SDS011;8715;51.010;6.812;2022-09-12T05:36:17;464.48;;;443.75;;
17197;SDS011;8715;51.010;6.812;2022-09-12T05:38:48;502.95;;;481.33;;
17197;SDS011;8715;51.010;6.812;2022-09-12T05:41:14;531.40;;;508.90;;
17197;SDS011;8715;51.010;6.812;2022-09-12T05:43:41;526.00;;;503.05;;
17197;SDS011;8715;51.010;6.812;2022-09-12T05:46:09;530.50;;;508.92;;
17197;SDS011;8715;51.010;6.812;2022-09-12T05:48:36;542.65;;;520.72;;
17197;SDS011;8715;51.010;6.812;2022-09-12T05:51:04;561.75;;;539.25;;
17197;SDS011;8715;51.010;6.812;2022-09-12T05:53:32;573.10;;;549.40;;
17197;SDS011;8715;51.010;6.812;2022-09-12T05:56:08;567.72;;;544.92;;
17197;SDS011;8715;51.010;6.812;2022-09-12T05:58:37;589.58;;;565.40;;
17197;SDS011;8715;51.010;6.812;2022-09-12T06:01:05;588.85;;;564.63;;
17197;SDS011;8715;51.010;6.812;2022-09-12T06:03:39;587.90;;;564.13;;
17197;SDS011;8715;51.010;6.812;2022-09-12T06:06:08;602.58;;;578.20;;
17197;SDS011;8715;51.010;6.812;2022-09-12T06:08:37;605.90;;;581.33;;
17197;SDS011;8715;51.010;6.812;2022-09-12T06:11:04;607.28;;;582.60;;
17197;SDS011;8715;51.010;6.812;2022-09-12T06:13:31;608.65;;;583.50;;
17197;SDS011;8715;51.010;6.812;2022-09-12T06:16:04;609.97;;;585.20;;
17197;SDS011;8715;51.010;6.812;2022-09-12T06:18:32;619.53;;;594.20;;
17197;SDS011;8715;51.010;6.812;2022-09-12T06:21:01;604.55;;;579.38;;
17197;SDS011;8715;51.010;6.812;2022-09-12T06:23:27;603.20;;;578.30;;
17197;SDS011;8715;51.010;6.812;2022-09-12T06:25:52;609.40;;;584.67;;
17197;SDS011;8715;51.010;6.812;2022-09-12T06:28:19;602.45;;;577.50;;
17197;SDS011;8715;51.010;6.812;2022-09-12T06:30:44;599.80;;;575.00;;
17197;SDS011;8715;51.010;6.812;2022-09-12T06:33:09;589.55;;;565.55;;
17197;SDS011;8715;51.010;6.812;2022-09-12T06:35:35;590.30;;;566.53;;
17197;SDS011;8715;51.010;6.812;2022-09-12T06:38:02;589.17;;;565.08;;
17197;SDS011;8715;51.010;6.812;2022-09-12T06:40:27;580.50;;;556.15;;
17197;SDS011;8715;51.010;6.812;2022-09-12T06:42:53;578.53;;;554.92;;
17197;SDS011;8715;51.010;6.812;2022-09-12T06:45:19;564.37;;;541.40;;
17197;SDS011;8715;51.010;6.812;2022-09-12T06:47:44;574.85;;;551.25;;
17197;SDS011;8715;51.010;6.812;2022-09-12T06:50:10;560.93;;;538.40;;
17197;SDS011;8715;51.010;6.812;2022-09-12T06:52:35;544.13;;;521.33;;
17197;SDS011;8715;51.010;6.812;2022-09-12T06:55:01;547.85;;;524.88;;
17197;SDS011;8715;51.010;6.812;2022-09-12T06:57:26;556.00;;;533.10;;
17197;SDS011;8715;51.010;6.812;2022-09-12T06:59:54;546.72;;;524.53;;
17197;SDS011;8715;51.010;6.812;2022-09-12T07:02:19;535.58;;;513.45;;
17197;SDS011;8715;51.010;6.812;2022-09-12T07:04:45;534.95;;;512.95;;
17197;SDS011;8715;51.010;6.812;2022-09-12T07:07:11;560.28;;;537.63;;
17197;SDS011;8715;51.010;6.812;2022-09-12T07:09:36;521.55;;;500.10;;
17197;SDS011;8715;51.010;6.812;2022-09-12T07:12:01;529.23;;;507.43;;
17197;SDS011;8715;51.010;6.812;2022-09-12T07:14:28;535.55;;;513.17;;
17197;SDS011;8715;51.010;6.812;2022-09-12T07:16:54;528.38;;;506.90;;
17197;SDS011;8715;51.010;6.812;2022-09-12T07:19:19;531.55;;;508.33;;
17197;SDS011;8715;51.010;6.812;2022-09-12T07:21:44;521.17;;;499.48;;
17197;SDS011;8715;51.010;6.812;2022-09-12T07:24:10;569.17;;;545.50;;
17197;SDS011;8715;51.010;6.812;2022-09-12T07:26:36;524.50;;;502.92;;
17197;SDS011;8715;51.010;6.812;2022-09-12T07:29:11;518.05;;;496.80;;
17197;SDS011;8715;51.010;6.812;2022-09-12T07:31:38;535.92;;;514.42;;
17197;SDS011;8715;51.010;6.812;2022-09-12T07:34:04;510.70;;;490.00;;
17197;SDS011;8715;51.010;6.812;2022-09-12T07:36:30;510.65;;;489.90;;
17197;SDS011;8715;51.010;6.812;2022-09-12T07:38:55;529.03;;;507.52;;
17197;SDS011;8715;51.010;6.812;2022-09-12T07:41:23;520.28;;;499.15;;
17197;SDS011;8715;51.010;6.812;2022-09-12T07:43:51;522.78;;;501.75;;
17197;SDS011;8715;51.010;6.812;2022-09-12T07:46:30;515.15;;;494.23;;
17197;SDS011;8715;51.010;6.812;2022-09-12T07:48:56;526.20;;;504.63;;
17197;SDS011;8715;51.010;6.812;2022-09-12T07:51:22;543.70;;;521.85;;
17197;SDS011;8715;51.010;6.812;2022-09-12T07:53:50;527.03;;;505.23;;
17197;SDS011;8715;51.010;6.812;2022-09-12T07:56:16;528.40;;;507.15;;
17197;SDS011;8715;51.010;6.812;2022-09-12T07:58:42;523.13;;;502.02;;
17197;SDS011;8715;51.010;6.812;2022-09-12T08:01:09;521.38;;;500.45;;
17197;SDS011;8715;51.010;6.812;2022-09-12T08:03:42;538.00;;;516.63;;
17197;SDS011;8715;51.010;6.812;2022-09-12T08:06:12;526.28;;;505.08;;
17197;SDS011;8715;51.010;6.812;2022-09-12T08:11:10;516.40;;;495.37;;
17197;SDS011;8715;51.010;6.812;2022-09-12T08:13:37;522.58;;;501.67;;
17197;SDS011;8715;51.010;6.812;2022-09-12T08:16:07;533.42;;;511.55;;
17197;SDS011;8715;51.010;6.812;2022-09-12T08:18:36;572.33;;;549.58;;
17197;SDS011;8715;51.010;6.812;2022-09-12T08:21:02;533.78;;;511.83;;
17197;SDS011;8715;51.010;6.812;2022-09-12T08:23:32;524.88;;;504.02;;
17197;SDS011;8715;51.010;6.812;2022-09-12T08:25:58;539.03;;;517.03;;
17197;SDS011;8715;51.010;6.812;2022-09-12T08:28:25;524.97;;;503.60;;
17197;SDS011;8715;51.010;6.812;2022-09-12T08:30:51;528.80;;;506.90;;
17197;SDS011;8715;51.010;6.812;2022-09-12T08:33:17;546.65;;;524.15;;
17197;SDS011;8715;51.010;6.812;2022-09-12T08:35:43;532.22;;;510.85;;
17197;SDS011;8715;51.010;6.812;2022-09-12T08:38:08;531.47;;;509.13;;
17197;SDS011;8715;51.010;6.812;2022-09-12T08:40:39;534.75;;;513.30;;
17197;SDS011;8715;51.010;6.812;2022-09-12T08:48:43;555.33;;;533.10;;
17197;SDS011;8715;51.010;6.812;2022-09-12T08:51:09;568.53;;;545.67;;
17197;SDS011;8715;51.010;6.812;2022-09-12T08:53:37;566.22;;;543.50;;
17197;SDS011;8715;51.010;6.812;2022-09-12T08:56:03;558.58;;;536.47;;
17197;SDS011;8715;51.010;6.812;2022-09-12T08:58:29;570.85;;;547.88;;
17197;SDS011;8715;51.010;6.812;2022-09-12T09:17:28;583.53;;;559.42;;
17197;SDS011;8715;51.010;6.812;2022-09-12T09:25:14;596.10;;;572.00;;
17197;SDS011;8715;51.010;6.812;2022-09-12T09:27:57;587.63;;;564.28;;
17197;SDS011;8715;51.010;6.812;2022-09-12T09:30:26;591.03;;;566.72;;
17197;SDS011;8715;51.010;6.812;2022-09-12T09:32:59;593.10;;;569.25;;
17197;SDS011;8715;51.010;6.812;2022-09-12T09:35:31;602.08;;;577.92;;
17197;SDS011;8715;51.010;6.812;2022-09-12T09:38:24;592.42;;;568.60;;
17197;SDS011;8715;51.010;6.812;2022-09-12T09:41:19;597.35;;;572.97;;
17197;SDS011;8715;51.010;6.812;2022-09-12T09:44:04;598.38;;;573.75;;
17197;SDS011;8715;51.010;6.812;2022-09-12T09:46:30;596.90;;;572.42;;
17197;SDS011;8715;51.010;6.812;2022-09-12T09:48:56;603.47;;;578.90;;
17197;SDS011;8715;51.010;6.812;2022-09-12T09:51:25;593.92;;;569.38;;
17197;SDS011;8715;51.010;6.812;2022-09-12T09:53:59;589.17;;;564.92;;
17197;SDS011;8715;51.010;6.812;2022-09-12T09:58:52;605.80;;;580.90;;
17197;SDS011;8715;51.010;6.812;2022-09-12T10:01:17;601.58;;;576.72;;
17197;SDS011;8715;51.010;6.812;2022-09-12T10:03:47;600.40;;;576.33;;
17197;SDS011;8715;51.010;6.812;2022-09-12T10:08:44;612.70;;;587.92;;
17197;SDS011;8715;51.010;6.812;2022-09-12T10:11:21;607.50;;;583.17;;
17197;SDS011;8715;51.010;6.812;2022-09-12T10:16:28;611.92;;;587.20;;
17197;SDS011;8715;51.010;6.812;2022-09-12T10:18:55;621.88;;;596.55;;
17197;SDS011;8715;51.010;6.812;2022-09-12T10:23:49;615.13;;;590.45;;
17197;SDS011;8715;51.010;6.812;2022-09-12T10:26:17;615.53;;;590.65;;
17197;SDS011;8715;51.010;6.812;2022-09-12T10:28:53;614.17;;;589.33;;
17197;SDS011;8715;51.010;6.812;2022-09-12T10:31:22;612.95;;;588.42;;
17197;SDS011;8715;51.010;6.812;2022-09-12T10:33:52;614.53;;;589.80;;
17197;SDS011;8715;51.010;6.812;2022-09-12T10:36:19;653.92;;;627.30;;
17197;SDS011;8715;51.010;6.812;2022-09-12T10:38:55;618.65;;;593.65;;
17197;SDS011;8715;51.010;6.812;2022-09-12T10:41:21;625.95;;;600.20;;
17197;SDS011;8715;51.010;6.812;2022-09-12T10:43:49;621.95;;;596.58;;
17197;SDS011;8715;51.010;6.812;2022-09-12T10:48:40;614.33;;;589.15;;
17197;SDS011;8715;51.010;6.812;2022-09-12T10:51:07;618.60;;;593.38;;
17197;SDS011;8715;51.010;6.812;2022-09-12T10:53:40;617.72;;;592.72;;
17197;SDS011;8715;51.010;6.812;2022-09-12T10:56:09;626.10;;;600.70;;
17197;SDS011;8715;51.010;6.812;2022-09-12T10:58:39;618.63;;;593.63;;
17197;SDS011;8715;51.010;6.812;2022-09-12T11:01:28;615.67;;;589.97;;
17197;SDS011;8715;51.010;6.812;2022-09-12T11:06:45;607.13;;;582.97;;
17197;SDS011;8715;51.010;6.812;2022-09-12T11:09:33;614.58;;;589.88;;
17197;SDS011;8715;51.010;6.812;2022-09-12T11:12:15;606.63;;;582.28;;
17197;SDS011;8715;51.010;6.812;2022-09-12T11:17:23;628.50;;;603.03;;
17197;SDS011;8715;51.010;6.812;2022-09-12T11:22:34;610.97;;;586.30;;
17197;SDS011;8715;51.010;6.812;2022-09-12T11:25:09;633.08;;;606.95;;
17197;SDS011;8715;51.010;6.812;2022-09-12T11:30:32;629.55;;;604.08;;
17197;SDS011;8715;51.010;6.812;2022-09-12T11:36:04;631.38;;;605.92;;
17197;SDS011;8715;51.010;6.812;2022-09-12T11:41:06;631.67;;;605.83;;
17197;SDS011;8715;51.010;6.812;2022-09-12T11:46:21;666.80;;;639.63;;
17197;SDS011;8715;51.010;6.812;2022-09-12T11:51:34;640.60;;;614.30;;
17197;SDS011;8715;51.010;6.812;2022-09-12T11:57:49;635.28;;;609.55;;
17197;SDS011;8715;51.010;6.812;2022-09-12T12:00:05;630.60;;;604.90;;
17197;SDS011;8715;51.010;6.812;2022-09-12T12:05:33;638.88;;;612.92;;
17197;SDS011;8715;51.010;6.812;2022-09-12T12:08:14;632.92;;;607.00;;
17197;SDS011;8715;51.010;6.812;2022-09-12T12:10:40;637.60;;;611.75;;
17197;SDS011;8715;51.010;6.812;2022-09-12T12:13:24;649.92;;;623.08;;
17197;SDS011;8715;51.010;6.812;2022-09-12T12:15:53;631.63;;;605.92;;
17197;SDS011;8715;51.010;6.812;2022-09-12T12:18:22;644.70;;;618.47;;
17197;SDS011;8715;51.010;6.812;2022-09-12T12:20:49;646.20;;;619.70;;
17197;SDS011;8715;51.010;6.812;2022-09-12T12:23:30;647.38;;;621.13;;
17197;SDS011;8715;51.010;6.812;2022-09-12T12:25:58;645.97;;;618.97;;
17197;SDS011;8715;51.010;6.812;2022-09-12T12:31:14;645.72;;;619.22;;
17197;SDS011;8715;51.010;6.812;2022-09-12T12:36:08;647.85;;;620.88;;
17197;SDS011;8715;51.010;6.812;2022-09-12T12:38:37;644.17;;;617.50;;
17197;SDS011;8715;51.010;6.812;2022-09-12T12:43:45;640.17;;;613.80;;
17197;SDS011;8715;51.010;6.812;2022-09-12T12:46:12;648.22;;;620.88;;
17197;SDS011;8715;51.010;6.812;2022-09-12T12:49:26;641.65;;;615.25;;
17197;SDS011;8715;51.010;6.812;2022-09-12T12:51:38;637.35;;;610.83;;
17197;SDS011;8715;51.010;6.812;2022-09-12T12:54:31;639.97;;;612.80;;
17197;SDS011;8715;51.010;6.812;2022-09-12T12:57:17;641.38;;;614.92;;
17197;SDS011;8715;51.010;6.812;2022-09-12T12:59:51;638.65;;;612.53;;
17197;SDS011;8715;51.010;6.812;2022-09-12T13:02:22;635.70;;;609.60;;
17197;SDS011;8715;51.010;6.812;2022-09-12T13:04:49;647.33;;;620.92;;
17197;SDS011;8715;51.010;6.812;2022-09-12T13:07:25;628.60;;;603.28;;
17197;SDS011;8715;51.010;6.812;2022-09-12T13:09:55;637.38;;;611.03;;
17197;SDS011;8715;51.010;6.812;2022-09-12T13:12:32;640.58;;;614.22;;
17197;SDS011;8715;51.010;6.812;2022-09-12T13:15:02;643.17;;;616.63;;
17197;SDS011;8715;51.010;6.812;2022-09-12T13:17:50;642.95;;;616.28;;
17197;SDS011;8715;51.010;6.812;2022-09-12T13:20:16;638.65;;;612.50;;
17197;SDS011;8715;51.010;6.812;2022-09-12T13:22:45;640.17;;;614.08;;
17197;SDS011;8715;51.010;6.812;2022-09-12T13:25:31;645.80;;;619.38;;
17197;SDS011;8715;51.010;6.812;2022-09-12T13:30:25;644.55;;;617.80;;
17197;SDS011;8715;51.010;6.812;2022-09-12T13:32:52;642.13;;;616.00;;
17197;SDS011;8715;51.010;6.812;2022-09-12T13:35:22;650.38;;;624.08;;
17197;SDS011;8715;51.010;6.812;2022-09-12T13:38:09;649.15;;;622.33;;
17197;SDS011;8715;51.010;6.812;2022-09-12T13:41:04;648.65;;;622.03;;
17197;SDS011;8715;51.010;6.812;2022-09-12T13:43:40;647.42;;;620.70;;
17197;SDS011;8715;51.010;6.812;2022-09-12T13:46:07;650.83;;;623.80;;
17197;SDS011;8715;51.010;6.812;2022-09-12T13:48:33;650.75;;;623.83;;
17197;SDS011;8715;51.010;6.812;2022-09-12T13:51:01;653.17;;;625.90;;
17197;SDS011;8715;51.010;6.812;2022-09-12T13:53:49;653.15;;;625.80;;
17197;SDS011;8715;51.010;6.812;2022-09-12T13:56:15;649.55;;;623.13;;
17197;SDS011;8715;51.010;6.812;2022-09-12T13:59:08;662.35;;;634.53;;
17197;SDS011;8715;51.010;6.812;2022-09-12T14:01:42;659.30;;;631.22;;
17197;SDS011;8715;51.010;6.812;2022-09-12T14:04:17;659.70;;;632.17;;
17197;SDS011;8715;51.010;6.812;2022-09-12T14:07:16;644.67;;;618.20;;
17197;SDS011;8715;51.010;6.812;2022-09-12T14:09:55;651.17;;;623.92;;
17197;SDS011;8715;51.010;6.812;2022-09-12T14:14:50;648.33;;;621.73;;
17197;SDS011;8715;51.010;6.812;2022-09-12T14:17:27;655.28;;;628.50;;
17197;SDS011;8715;51.010;6.812;2022-09-12T14:19:59;655.53;;;628.33;;
17197;SDS011;8715;51.010;6.812;2022-09-12T14:22:28;655.70;;;627.92;;
17197;SDS011;8715;51.010;6.812;2022-09-12T14:24:54;655.00;;;627.95;;
17197;SDS011;8715;51.010;6.812;2022-09-12T14:27:24;644.35;;;617.78;;
17197;SDS011;8715;51.010;6.812;2022-09-12T14:29:55;648.80;;;621.72;;
17197;SDS011;8715;51.010;6.812;2022-09-12T14:32:31;651.63;;;624.40;;
17197;SDS011;8715;51.010;6.812;2022-09-12T14:37:42;644.67;;;618.30;;
17197;SDS011;8715;51.010;6.812;2022-09-12T14:40:16;650.53;;;622.63;;
17197;SDS011;8715;51.010;6.812;2022-09-12T14:42:43;644.95;;;618.13;;
17197;SDS011;8715;51.010;6.812;2022-09-12T14:45:15;644.70;;;617.90;;
17197;SDS011;8715;51.010;6.812;2022-09-12T14:47:42;647.22;;;620.30;;
17197;SDS011;8715;51.010;6.812;2022-09-12T14:50:17;651.53;;;623.00;;
17197;SDS011;8715;51.010;6.812;2022-09-12T14:55:44;635.95;;;609.65;;
17197;SDS011;8715;51.010;6.812;2022-09-12T15:03:34;648.08;;;621.45;;
17197;SDS011;8715;51.010;6.812;2022-09-12T15:06:03;645.53;;;618.88;;
17197;SDS011;8715;51.010;6.812;2022-09-12T15:08:31;637.60;;;611.47;;
17197;SDS011;8715;51.010;6.812;2022-09-12T15:10:57;642.60;;;616.10;;
17197;SDS011;8715;51.010;6.812;2022-09-12T15:13:24;642.08;;;615.75;;
17197;SDS011;8715;51.010;6.812;2022-09-12T15:15:53;650.35;;;623.63;;
17197;SDS011;8715;51.010;6.812;2022-09-12T15:18:20;642.70;;;616.25;;
17197;SDS011;8715;51.010;6.812;2022-09-12T15:20:48;647.10;;;620.42;;
17197;SDS011;8715;51.010;6.812;2022-09-12T15:23:23;642.42;;;615.88;;
17197;SDS011;8715;51.010;6.812;2022-09-12T15:25:53;643.90;;;617.38;;
17197;SDS011;8715;51.010;6.812;2022-09-12T15:28:19;643.17;;;616.28;;
17197;SDS011;8715;51.010;6.812;2022-09-12T15:30:46;644.45;;;617.97;;
17197;SDS011;8715;51.010;6.812;2022-09-12T15:33:14;643.78;;;616.08;;
17197;SDS011;8715;51.010;6.812;2022-09-12T15:35:40;644.25;;;617.28;;
17197;SDS011;8715;51.010;6.812;2022-09-12T15:38:06;638.92;;;612.70;;
17197;SDS011;8715;51.010;6.812;2022-09-12T15:40:31;650.30;;;623.30;;
17197;SDS011;8715;51.010;6.812;2022-09-12T15:42:56;638.78;;;612.63;;
17197;SDS011;8715;51.010;6.812;2022-09-12T15:45:22;634.57;;;608.60;;
17197;SDS011;8715;51.010;6.812;2022-09-12T15:47:51;633.38;;;607.55;;
17197;SDS011;8715;51.010;6.812;2022-09-12T15:50:17;644.45;;;616.90;;
17197;SDS011;8715;51.010;6.812;2022-09-12T15:52:42;632.77;;;606.20;;
17197;SDS011;8715;51.010;6.812;2022-09-12T15:55:15;648.53;;;621.72;;
17197;SDS011;8715;51.010;6.812;2022-09-12T15:57:43;637.65;;;611.45;;
17197;SDS011;8715;51.010;6.812;2022-09-12T16:00:08;635.25;;;608.67;;
17197;SDS011;8715;51.010;6.812;2022-09-12T16:02:34;636.65;;;610.20;;
17197;SDS011;8715;51.010;6.812;2022-09-12T16:04:59;633.57;;;607.30;;
17197;SDS011;8715;51.010;6.812;2022-09-12T16:07:25;630.33;;;604.63;;
17197;SDS011;8715;51.010;6.812;2022-09-12T16:09:51;639.55;;;613.35;;
17197;SDS011;8715;51.010;6.812;2022-09-12T16:12:16;630.73;;;604.80;;
17197;SDS011;8715;51.010;6.812;2022-09-12T16:14:41;647.57;;;620.10;;
17197;SDS011;8715;51.010;6.812;2022-09-12T16:17:06;621.73;;;595.93;;
17197;SDS011;8715;51.010;6.812;2022-09-12T16:19:32;637.67;;;611.53;;
17197;SDS011;8715;51.010;6.812;2022-09-12T16:21:58;632.83;;;607.05;;
17197;SDS011;8715;51.010;6.812;2022-09-12T16:24:24;634.25;;;608.60;;
17197;SDS011;8715;51.010;6.812;2022-09-12T16:26:49;639.90;;;613.87;;
17197;SDS011;8715;51.010;6.812;2022-09-12T16:29:14;632.93;;;607.10;;
17197;SDS011;8715;51.010;6.812;2022-09-12T16:31:40;642.03;;;615.38;;
17197;SDS011;8715;51.010;6.812;2022-09-12T16:34:05;639.55;;;613.28;;
17197;SDS011;8715;51.010;6.812;2022-09-12T16:36:31;630.60;;;604.80;;